createdAt,value
2023-03-27T11:19:20.266Z,8.53
2023-03-27T11:54:31.143Z,9.38
2023-03-27T11:55:32.435Z,9.36
2023-03-27T11:56:31.103Z,9.38
2023-03-27T12:27:28.710Z,8.62
2023-03-27T12:28:28.644Z,9.60
2023-03-27T12:29:28.638Z,9.50
2023-03-27T12:30:28.615Z,10.08
2023-03-27T12:31:28.654Z,10.45
2023-03-27T12:32:28.615Z,9.93
2023-03-27T12:33:28.543Z,9.84
2023-03-27T13:02:51.641Z,5.79
2023-03-27T13:03:51.736Z,6.12
2023-03-27T13:04:51.514Z,7.02
2023-03-27T13:05:51.535Z,7.85
2023-03-27T13:06:51.465Z,8.99
2023-03-27T13:07:53.498Z,9.20
2023-03-27T13:08:51.437Z,9.20
2023-03-27T13:09:51.402Z,8.52
2023-03-27T13:10:51.396Z,7.87
2023-03-27T13:11:51.391Z,7.52
2023-03-27T13:12:51.347Z,8.08
2023-03-27T13:13:51.311Z,8.95
2023-03-27T13:14:51.287Z,9.53
2023-03-27T13:15:51.330Z,9.40
2023-03-27T13:16:51.299Z,8.81
2023-03-27T13:17:51.262Z,8.73
2023-03-27T13:18:52.229Z,8.76
2023-03-27T13:19:51.175Z,8.43
2023-03-27T13:20:51.180Z,8.62
2023-03-27T13:21:51.172Z,8.99
2023-03-27T13:22:51.119Z,9.17
2023-03-27T13:23:51.132Z,9.94
2023-03-27T13:24:51.099Z,10.55
2023-03-27T13:25:51.053Z,9.53
2023-03-27T13:26:51.061Z,10.34
2023-03-27T13:27:51.074Z,10.33
2023-03-27T13:28:51.049Z,10.25
2023-03-27T13:29:50.994Z,10.68
2023-03-27T13:30:50.986Z,11.03
2023-03-27T13:31:50.959Z,11.28
2023-03-27T13:32:51.007Z,11.24
2023-03-27T13:33:50.910Z,11.58
2023-03-27T13:34:50.933Z,11.47
2023-03-27T13:35:52.733Z,11.78
2023-03-27T13:36:50.868Z,11.19
2023-03-27T13:37:50.870Z,10.70
2023-03-27T13:38:50.848Z,10.42
2023-03-27T13:39:50.808Z,10.34
2023-03-27T13:40:50.800Z,10.36
2023-03-27T13:41:50.775Z,10.36
2023-03-27T13:42:50.781Z,11.04
2023-03-27T13:43:50.775Z,11.10
2023-03-27T13:44:50.757Z,11.18
2023-03-27T13:45:50.736Z,10.53
2023-03-27T13:46:50.761Z,10.91
2023-03-27T13:47:50.722Z,11.42
2023-03-27T13:48:50.725Z,11.55
2023-03-27T13:49:50.663Z,11.24
2023-03-27T13:50:50.660Z,11.27
2023-03-27T13:51:50.638Z,11.46
2023-03-27T13:52:50.632Z,11.25
2023-03-27T13:53:50.644Z,10.36
2023-03-27T13:54:50.621Z,10.41
2023-03-27T13:55:50.586Z,10.45
2023-03-27T13:56:50.629Z,10.33
2023-03-27T13:57:50.568Z,10.81
2023-03-27T13:58:50.550Z,11.40
2023-03-27T13:59:50.549Z,11.64
2023-03-27T14:00:50.530Z,11.55
2023-03-27T14:01:50.536Z,11.86
2023-03-27T14:02:50.584Z,11.90
2023-03-27T14:03:50.561Z,11.94
2023-03-27T14:04:50.469Z,10.89
2023-03-27T14:05:50.425Z,10.25
2023-03-27T14:06:50.442Z,9.58
2023-03-27T14:29:00.024Z,7.48
2023-03-27T14:30:00.009Z,8.16
2023-03-27T14:30:59.964Z,8.98
2023-03-27T14:32:00.030Z,9.47
2023-03-27T14:32:59.930Z,9.53
2023-03-27T14:33:59.892Z,9.71
2023-03-27T14:34:59.863Z,9.97
2023-03-27T14:35:59.988Z,9.74
2023-03-27T14:36:59.850Z,10.45
2023-03-27T14:37:59.834Z,10.40
2023-03-27T14:38:59.810Z,10.61
2023-03-27T14:39:59.781Z,10.04
2023-03-27T14:40:59.782Z,9.86
2023-03-27T14:41:59.743Z,10.18
2023-03-27T14:42:59.719Z,9.75
2023-03-27T14:43:59.728Z,10.48
2023-03-27T14:44:59.685Z,10.79
2023-03-27T14:45:59.954Z,10.67
2023-03-27T14:46:59.686Z,10.96
2023-03-27T14:47:59.737Z,10.34
2023-03-27T14:52:19.754Z,9.13
2023-03-27T14:53:19.725Z,9.38
2023-03-27T15:09:39.520Z,8.12
2023-03-27T15:12:45.681Z,8.18
2023-03-27T15:13:47.933Z,8.38
2023-03-27T15:14:45.609Z,8.66
